createdAt,value
2018-03-20T00:02:06.660Z,100754.22
2018-03-20T00:04:34.169Z,100746.77
2018-03-20T00:07:01.687Z,100748.12
2018-03-20T00:09:29.238Z,100748.81
2018-03-20T00:11:56.765Z,100747.70
2018-03-20T00:14:24.276Z,100746.96
2018-03-20T00:16:51.809Z,100743.55
2018-03-20T00:19:19.677Z,100746.11
2018-03-20T00:21:47.181Z,100737.03
2018-03-20T00:24:14.728Z,100742.12
2018-03-20T00:26:42.254Z,100740.38
2018-03-20T00:29:09.752Z,100740.59
2018-03-20T00:31:37.345Z,100737.52
2018-03-20T00:34:04.872Z,100734.77
2018-03-20T00:36:32.398Z,100730.99
2018-03-20T00:38:59.955Z,100729.98
2018-03-20T00:41:27.721Z,100737.58
2018-03-20T00:43:55.244Z,100737.42
2018-03-20T00:46:22.778Z,100731.22
2018-03-20T00:48:50.514Z,100727.95
2018-03-20T00:51:18.038Z,100726.91
2018-03-20T00:53:45.589Z,100733.73
2018-03-20T00:56:13.100Z,100728.52
2018-03-20T00:58:40.624Z,100727.46
2018-03-20T01:01:08.167Z,100725.47
2018-03-20T01:03:35.674Z,100722.88
2018-03-20T01:06:03.167Z,100724.24
2018-03-20T01:08:30.723Z,100721.83
2018-03-20T01:10:58.548Z,100727.12
2018-03-20T01:13:26.046Z,100723.91
2018-03-20T01:15:53.666Z,100714.83
2018-03-20T01:18:21.171Z,100709.69
2018-03-20T01:20:48.709Z,100716.39
2018-03-20T01:23:16.252Z,100710.78
2018-03-20T01:25:43.880Z,100705.20
2018-03-20T01:28:11.390Z,100705.20
2018-03-20T01:30:38.984Z,100705.91
2018-03-20T01:33:06.794Z,100702.92
2018-03-20T01:35:34.314Z,100690.02
2018-03-20T01:38:01.835Z,100692.44
2018-03-20T01:40:29.357Z,100695.00
2018-03-20T01:42:56.888Z,100687.14
2018-03-20T01:45:24.721Z,100688.19
2018-03-20T01:47:52.244Z,100688.13
2018-03-20T01:50:19.801Z,100688.23
2018-03-20T01:52:47.359Z,100681.78
2018-03-20T01:55:14.926Z,100674.91
2018-03-20T01:57:42.438Z,100670.28
2018-03-20T02:00:10.025Z,100668.57
2018-03-20T02:02:37.777Z,100668.78
2018-03-20T02:05:05.306Z,100668.44
2018-03-20T02:07:32.847Z,100665.23
2018-03-20T02:10:00.661Z,100664.11
2018-03-20T02:12:28.228Z,100660.64
2018-03-20T02:14:55.777Z,100652.92
2018-03-20T02:17:23.303Z,100647.02
2018-03-20T02:19:50.809Z,100646.00
2018-03-20T02:22:18.384Z,100636.11
2018-03-20T02:24:45.879Z,100641.25
2018-03-20T02:27:13.434Z,100639.31
2018-03-20T02:29:42.948Z,100634.23
2018-03-20T02:32:10.522Z,100632.77
2018-03-20T02:34:38.247Z,100632.23
2018-03-20T02:37:05.889Z,100637.19
2018-03-20T02:39:33.586Z,100620.64
2018-03-20T02:42:01.428Z,100621.11
2018-03-20T02:44:29.520Z,100618.34
2018-03-20T02:46:57.194Z,100617.32
2018-03-20T02:49:24.733Z,100610.22
2018-03-20T02:51:52.265Z,100609.98
2018-03-20T02:54:19.789Z,100610.63
2018-03-20T02:56:47.296Z,100609.61
2018-03-20T02:59:15.062Z,100602.22
2018-03-20T03:01:42.592Z,100606.32
2018-03-20T03:04:10.203Z,100602.11
2018-03-20T03:06:37.718Z,100599.28
2018-03-20T03:09:05.297Z,100594.25
2018-03-20T03:11:32.821Z,100590.32
2018-03-20T03:14:00.954Z,100585.20
2018-03-20T03:16:28.477Z,100585.77
2018-03-20T03:18:56.024Z,100584.84
2018-03-20T03:21:23.537Z,100578.88
2018-03-20T03:23:51.069Z,100579.85
2018-03-20T03:26:18.599Z,100575.48
2018-03-20T03:28:46.117Z,100579.77
2018-03-20T03:31:13.669Z,100578.58
2018-03-20T03:33:41.204Z,100577.41
2018-03-20T03:36:09.035Z,100582.58
2018-03-20T03:38:36.802Z,100584.23
2018-03-20T03:41:04.321Z,100585.89
2018-03-20T03:43:31.882Z,100589.30
2018-03-20T03:45:59.688Z,100597.11
2018-03-20T03:48:27.212Z,100601.45
2018-03-20T03:50:54.756Z,100610.66
2018-03-20T03:53:22.279Z,100622.23
2018-03-20T03:55:49.853Z,100625.88
2018-03-20T03:58:17.430Z,100625.91
2018-03-20T04:00:44.995Z,100626.20
2018-03-20T04:03:12.550Z,100634.19
2018-03-20T04:05:40.092Z,100634.10
2018-03-20T04:08:07.942Z,100625.41
2018-03-20T04:10:35.455Z,100630.03
2018-03-20T04:13:03.267Z,100623.39
2018-03-20T04:15:30.774Z,100619.86
2018-03-20T04:17:58.613Z,100623.03
2018-03-20T04:20:26.141Z,100626.36
2018-03-20T04:22:53.657Z,100625.36
2018-03-20T04:25:21.200Z,100619.11
2018-03-20T04:27:48.710Z,100619.72
2018-03-20T04:32:50.109Z,100625.92
2018-03-20T04:35:17.643Z,100619.89
2018-03-20T04:37:45.208Z,100622.56
2018-03-20T04:40:12.998Z,100611.78
2018-03-20T04:42:40.541Z,100612.20
2018-03-20T04:45:08.082Z,100607.30
2018-03-20T04:47:35.626Z,100601.08
2018-03-20T04:50:03.163Z,100602.34
2018-03-20T04:52:30.664Z,100601.23
2018-03-20T04:54:58.219Z,100606.64
2018-03-20T04:57:25.740Z,100598.37
2018-03-20T04:59:53.238Z,100609.87
2018-03-20T05:02:20.779Z,100602.95
2018-03-20T05:04:48.600Z,100599.20
2018-03-20T05:07:16.140Z,100589.82
2018-03-20T05:09:43.681Z,100593.34
2018-03-20T05:12:11.241Z,100590.20
2018-03-20T05:14:38.764Z,100588.56
2018-03-20T05:17:06.514Z,100580.95
2018-03-20T05:19:49.848Z,100588.47
2018-03-20T05:22:23.043Z,100583.52
2018-03-20T05:24:50.594Z,100586.84
2018-03-20T05:27:18.151Z,100579.16
2018-03-20T05:29:45.661Z,100585.38
2018-03-20T05:32:13.576Z,100582.34
2018-03-20T05:34:41.093Z,100578.95
2018-03-20T05:37:08.631Z,100581.33
2018-03-20T05:39:36.191Z,100579.69
2018-03-20T05:42:03.732Z,100580.58
2018-03-20T05:44:31.310Z,100588.42
2018-03-20T05:50:03.456Z,100594.72
2018-03-20T05:52:30.979Z,100594.75
2018-03-20T05:54:58.563Z,100601.52
2018-03-20T05:57:26.097Z,100605.21
2018-03-20T05:59:53.638Z,100601.86
2018-03-20T06:02:21.305Z,100606.33
2018-03-20T06:04:48.813Z,100611.77
2018-03-20T06:07:16.332Z,100611.86
2018-03-20T06:09:43.858Z,100616.01
2018-03-20T06:12:11.367Z,100618.03
2018-03-20T06:14:38.948Z,100619.45
2018-03-20T06:17:06.467Z,100626.39
2018-03-20T06:19:34.216Z,100626.25
2018-03-20T06:22:01.751Z,100631.59
2018-03-20T06:24:29.639Z,100628.41
2018-03-20T06:26:57.211Z,100632.28
2018-03-20T06:29:24.757Z,100630.66
2018-03-20T06:31:52.508Z,100631.94
2018-03-20T06:34:20.065Z,100635.12
2018-03-20T06:36:47.597Z,100634.13
2018-03-20T06:39:15.736Z,100635.20
2018-03-20T06:41:43.262Z,100635.32
2018-03-20T06:44:10.885Z,100643.58
2018-03-20T06:46:38.399Z,100645.88
2018-03-20T06:49:05.927Z,100646.88
2018-03-20T06:51:33.454Z,100647.25
2018-03-20T06:54:01.027Z,100646.05
2018-03-20T06:56:28.617Z,100651.24
2018-03-20T06:58:56.203Z,100649.18
2018-03-20T07:01:23.761Z,100657.56
2018-03-20T07:03:51.321Z,100663.50
2018-03-20T07:06:18.853Z,100670.83
2018-03-20T07:08:46.417Z,100658.59
2018-03-20T07:11:13.971Z,100658.67
2018-03-20T07:13:41.541Z,100662.42
2018-03-20T07:16:09.439Z,100659.77
2018-03-20T07:18:36.958Z,100658.19
2018-03-20T07:21:04.574Z,100658.70
2018-03-20T07:23:32.122Z,100670.53
2018-03-20T07:25:59.693Z,100664.77
2018-03-20T07:28:27.360Z,100669.83
2018-03-20T07:30:54.878Z,100678.36
2018-03-20T07:33:22.565Z,100674.45
2018-03-20T07:35:50.110Z,100683.98
2018-03-20T07:38:17.693Z,100686.77
2018-03-20T07:40:45.264Z,100687.68
2018-03-20T07:43:12.808Z,100694.13
2018-03-20T07:45:40.375Z,100698.38
2018-03-20T07:48:07.953Z,100697.30
2018-03-20T07:50:35.471Z,100697.30
2018-03-20T07:53:03.038Z,100702.85
2018-03-20T07:55:30.565Z,100702.78
2018-03-20T07:57:58.119Z,100710.71
2018-03-20T08:00:25.687Z,100709.90
2018-03-20T08:02:53.241Z,100714.17
2018-03-20T08:05:20.851Z,100721.30
2018-03-20T08:07:48.447Z,100720.88
2018-03-20T08:10:16.033Z,100724.00
2018-03-20T08:12:43.567Z,100727.11
2018-03-20T08:15:11.136Z,100727.80
2018-03-20T08:17:38.702Z,100737.50
2018-03-20T08:20:06.230Z,100741.31
2018-03-20T08:22:33.760Z,100742.91
2018-03-20T08:25:01.608Z,100752.09
2018-03-20T08:27:29.191Z,100741.49
2018-03-20T08:30:03.893Z,100743.96
2018-03-20T08:32:31.485Z,100744.64
2018-03-20T08:34:59.066Z,100758.91
2018-03-20T08:37:28.287Z,100756.45
2018-03-20T08:40:03.126Z,100761.36
2018-03-20T08:42:37.019Z,100762.03
2018-03-20T08:45:04.996Z,100771.48
2018-03-20T08:47:32.706Z,100777.58
2018-03-20T08:50:00.256Z,100790.19
2018-03-20T08:52:27.812Z,100790.53
2018-03-20T08:54:55.333Z,100792.81
2018-03-20T08:57:27.350Z,100795.77
2018-03-20T08:59:54.866Z,100801.81
2018-03-20T09:02:22.409Z,100805.75
2018-03-20T09:04:49.930Z,100804.13
2018-03-20T09:07:17.724Z,100800.97
2018-03-20T09:09:45.251Z,100806.89
2018-03-20T09:12:12.879Z,100805.64
2018-03-20T09:14:40.554Z,100813.92
2018-03-20T09:17:08.168Z,100820.57
2018-03-20T09:19:35.678Z,100823.72
2018-03-20T09:22:03.206Z,100829.27
2018-03-20T09:24:31.088Z,100836.47
2018-03-20T09:26:58.923Z,100837.47
2018-03-20T09:29:26.457Z,100841.30
2018-03-20T09:31:54.027Z,100844.25
2018-03-20T09:34:21.551Z,100854.30
2018-03-20T09:36:49.359Z,100853.56
2018-03-20T09:39:16.973Z,100855.07
2018-03-20T09:41:45.056Z,100857.09
2018-03-20T09:44:12.578Z,100868.38
2018-03-20T09:46:40.189Z,100870.53
2018-03-20T09:49:07.763Z,100879.77
2018-03-20T09:51:35.253Z,100883.27
2018-03-20T09:54:02.816Z,100883.53
2018-03-20T09:56:30.375Z,100892.84
2018-03-20T09:58:57.912Z,100892.93
2018-03-20T10:01:25.455Z,100895.86
2018-03-20T10:03:53.054Z,100895.84
2018-03-20T10:06:20.610Z,100908.58
2018-03-20T10:08:48.189Z,100901.21
2018-03-20T10:11:15.763Z,100904.87
2018-03-20T10:13:43.420Z,100908.31
2018-03-20T10:16:11.198Z,100910.34
2018-03-20T10:18:38.713Z,100913.61
2018-03-20T10:21:06.251Z,100910.49
2018-03-20T10:23:33.791Z,100912.02
2018-03-20T10:26:01.331Z,100918.35
2018-03-20T10:28:28.918Z,100919.69
2018-03-20T10:30:56.614Z,100924.80
2018-03-20T10:33:24.161Z,100937.44
2018-03-20T10:35:51.719Z,100935.16
2018-03-20T10:38:19.433Z,100943.48
2018-03-20T10:40:46.996Z,100945.86
2018-03-20T10:43:14.568Z,100951.36
2018-03-20T10:45:42.120Z,100958.66
2018-03-20T10:48:09.652Z,100962.08
2018-03-20T10:50:37.276Z,100959.50
2018-03-20T10:53:04.739Z,100966.86
2018-03-20T10:55:32.266Z,100970.52
2018-03-20T10:57:59.784Z,100965.69
2018-03-20T11:03:31.017Z,100978.77
2018-03-20T11:05:58.630Z,100979.71
2018-03-20T11:08:26.176Z,100986.88
2018-03-20T11:10:53.732Z,100992.39
2018-03-20T11:13:21.505Z,100992.65
2018-03-20T11:15:49.376Z,101000.07
2018-03-20T11:18:16.887Z,101002.14
2018-03-20T11:20:44.401Z,101004.42
2018-03-20T11:23:12.269Z,101010.02
2018-03-20T11:25:39.807Z,101018.12
2018-03-20T11:28:07.390Z,101010.45
2018-03-20T11:30:34.956Z,101026.20
2018-03-20T11:33:02.476Z,101029.48
2018-03-20T11:35:30.081Z,101026.45
2018-03-20T11:37:57.579Z,101028.17
2018-03-20T11:40:25.134Z,101036.75
2018-03-20T11:42:52.656Z,101036.55
2018-03-20T11:45:20.167Z,101043.08
2018-03-20T11:47:47.696Z,101039.64
2018-03-20T11:50:15.215Z,101053.30
2018-03-20T11:52:42.769Z,101055.08
2018-03-20T11:55:10.276Z,101056.42
2018-03-20T11:57:37.826Z,101064.40
2018-03-20T12:00:05.391Z,101069.97
2018-03-20T12:02:32.921Z,101069.48
2018-03-20T12:05:00.471Z,101077.14
2018-03-20T12:07:27.994Z,101073.26
2018-03-20T12:09:55.553Z,101076.09
2018-03-20T12:12:23.087Z,101083.80
2018-03-20T12:14:50.594Z,101081.22
2018-03-20T12:17:18.123Z,101090.22
2018-03-20T12:19:45.718Z,101091.59
2018-03-20T12:22:13.295Z,101093.33
2018-03-20T12:24:40.832Z,101088.35
2018-03-20T12:27:08.357Z,101100.52
2018-03-20T12:29:35.930Z,101100.56
2018-03-20T12:32:03.462Z,101109.60
2018-03-20T12:34:31.049Z,101106.91
2018-03-20T12:36:58.581Z,101114.19
2018-03-20T12:39:26.104Z,101109.62
2018-03-20T12:41:53.692Z,101115.94
2018-03-20T12:44:21.472Z,101110.27
2018-03-20T12:46:49.304Z,101123.90
2018-03-20T12:49:16.909Z,101129.63
2018-03-20T12:51:44.523Z,101128.11
2018-03-20T12:54:12.052Z,101128.81
2018-03-20T12:56:39.610Z,101132.42
2018-03-20T12:59:07.168Z,101133.94
2018-03-20T13:01:34.733Z,101131.05
2018-03-20T13:04:02.385Z,101135.53
2018-03-20T13:06:29.953Z,101138.20
2018-03-20T13:08:57.522Z,101136.37
2018-03-20T13:11:25.198Z,101143.89
2018-03-20T13:13:52.879Z,101141.47
2018-03-20T13:16:20.419Z,101146.94
2018-03-20T13:18:48.082Z,101146.30
2018-03-20T13:21:15.654Z,101147.28
2018-03-20T13:23:43.239Z,101150.55
2018-03-20T13:26:10.822Z,101150.56
2018-03-20T13:28:38.349Z,101150.23
2018-03-20T13:31:05.940Z,101156.30
2018-03-20T13:33:33.469Z,101155.58
2018-03-20T13:36:01.931Z,101164.42
2018-03-20T13:38:29.522Z,101166.65
2018-03-20T13:40:57.101Z,101166.25
2018-03-20T13:43:24.677Z,101172.25
2018-03-20T13:45:52.262Z,101178.09
2018-03-20T13:48:19.800Z,101182.55
2018-03-20T13:50:47.372Z,101189.65
2018-03-20T13:53:18.725Z,101191.92
2018-03-20T13:55:46.278Z,101191.70
2018-03-20T13:58:13.839Z,101202.31
2018-03-20T14:00:41.384Z,101198.47
2018-03-20T14:03:09.242Z,101211.02
2018-03-20T14:05:36.841Z,101216.48
2018-03-20T14:08:04.481Z,101216.58
2018-03-20T14:10:32.017Z,101222.75
2018-03-20T14:12:59.543Z,101230.20
2018-03-20T14:15:27.080Z,101244.11
2018-03-20T14:17:54.625Z,101242.98
2018-03-20T14:20:22.572Z,101247.41
2018-03-20T14:22:50.085Z,101249.64
2018-03-20T14:25:17.611Z,101248.31
2018-03-20T14:27:45.181Z,101246.45
2018-03-20T14:30:13.025Z,101254.48
2018-03-20T14:32:40.576Z,101252.50
2018-03-20T14:35:08.444Z,101257.59
2018-03-20T14:37:35.957Z,101258.95
2018-03-20T14:40:03.608Z,101264.10
2018-03-20T14:42:31.177Z,101263.81
2018-03-20T14:44:58.708Z,101267.14
2018-03-20T14:47:26.237Z,101272.23
2018-03-20T14:49:53.790Z,101272.72
2018-03-20T14:52:21.573Z,101280.22
2018-03-20T14:54:49.088Z,101277.89
2018-03-20T14:57:16.656Z,101282.81
2018-03-20T14:59:44.261Z,101282.35
2018-03-20T15:02:11.920Z,101283.89
2018-03-20T15:04:39.569Z,101290.10
2018-03-20T15:07:08.175Z,101287.30
2018-03-20T15:09:35.724Z,101293.73
2018-03-20T15:12:03.302Z,101304.73
2018-03-20T15:14:31.115Z,101304.02
2018-03-20T15:16:59.035Z,101307.36
2018-03-20T15:19:26.793Z,101315.43
2018-03-20T15:21:55.987Z,101321.53
2018-03-20T15:24:23.667Z,101327.70
2018-03-20T15:26:51.543Z,101335.05
2018-03-20T15:29:23.802Z,101349.36
2018-03-20T15:31:51.406Z,101345.91
2018-03-20T15:34:19.184Z,101349.73
2018-03-20T15:36:47.102Z,101363.08
2018-03-20T15:39:15.566Z,101359.22
2018-03-20T15:41:43.755Z,101353.77
2018-03-20T15:44:11.546Z,101369.19
2018-03-20T15:46:39.267Z,101372.37
2018-03-20T15:49:06.775Z,101381.84
2018-03-20T15:51:34.328Z,101380.69
2018-03-20T15:54:01.929Z,101394.50
2018-03-20T15:56:29.511Z,101395.94
2018-03-20T15:58:57.051Z,101400.48
2018-03-20T16:01:24.596Z,101416.97
2018-03-20T16:03:52.328Z,101424.56
2018-03-20T16:06:19.917Z,101425.61
2018-03-20T16:08:47.403Z,101435.43
2018-03-20T16:11:14.920Z,101447.69
2018-03-20T16:13:42.660Z,101447.34
2018-03-20T16:16:10.214Z,101450.78
2018-03-20T16:18:39.223Z,101459.89
2018-03-20T16:21:06.825Z,101459.26
2018-03-20T16:23:34.411Z,101472.66
2018-03-20T16:26:02.115Z,101477.94
2018-03-20T16:28:29.740Z,101478.13
2018-03-20T16:30:57.272Z,101489.33
2018-03-20T16:33:24.833Z,101495.77
2018-03-20T16:35:52.379Z,101500.56
2018-03-20T16:38:20.015Z,101507.25
2018-03-20T16:40:47.550Z,101511.36
2018-03-20T16:43:15.105Z,101512.20
2018-03-20T16:45:42.643Z,101506.45
2018-03-20T16:48:10.211Z,101511.13
2018-03-20T16:50:37.738Z,101521.87
2018-03-20T16:53:05.329Z,101522.69
2018-03-20T16:55:32.862Z,101533.58
2018-03-20T16:58:00.574Z,101536.72
2018-03-20T17:00:28.167Z,101540.68
2018-03-20T17:02:55.680Z,101551.58
2018-03-20T17:05:23.497Z,101549.92
2018-03-20T17:07:51.514Z,101556.72
2018-03-20T17:10:19.074Z,101561.77
2018-03-20T17:12:46.569Z,101564.53
2018-03-20T17:15:14.245Z,101567.56
2018-03-20T17:17:41.776Z,101574.73
2018-03-20T17:20:09.386Z,101585.52
2018-03-20T17:22:36.971Z,101579.63
2018-03-20T17:25:04.572Z,101594.34
2018-03-20T17:27:33.309Z,101596.20
2018-03-20T17:30:00.946Z,101591.28
2018-03-20T17:32:28.463Z,101601.98
2018-03-20T17:34:56.000Z,101603.81
2018-03-20T17:37:23.631Z,101611.84
2018-03-20T17:39:51.701Z,101616.55
2018-03-20T17:42:19.417Z,101619.80
2018-03-20T17:44:46.976Z,101616.30
2018-03-20T17:47:14.689Z,101619.97
2018-03-20T17:49:43.694Z,101622.74
2018-03-20T17:52:11.340Z,101626.08
2018-03-20T17:54:39.019Z,101637.61
2018-03-20T17:57:06.855Z,101646.24
2018-03-20T17:59:34.595Z,101658.00
2018-03-20T18:02:02.265Z,101658.95
2018-03-20T18:04:31.252Z,101662.91
2018-03-20T18:06:59.429Z,101664.52
2018-03-20T18:09:26.953Z,101671.20
2018-03-20T18:11:54.607Z,101679.72
2018-03-20T18:14:22.178Z,101681.45
2018-03-20T18:16:49.751Z,101686.59
2018-03-20T18:19:17.544Z,101686.64
2018-03-20T18:21:45.058Z,101696.89
2018-03-20T18:24:13.182Z,101702.53
2018-03-20T18:26:40.786Z,101701.55
2018-03-20T18:29:08.485Z,101704.36
2018-03-20T18:31:36.071Z,101715.80
2018-03-20T18:34:03.575Z,101726.05
2018-03-20T18:36:31.477Z,101729.20
2018-03-20T18:39:00.010Z,101730.62
2018-03-20T18:41:28.550Z,101734.48
2018-03-20T18:43:56.091Z,101740.39
2018-03-20T18:46:23.821Z,101740.38
2018-03-20T18:48:51.346Z,101745.31
2018-03-20T18:51:18.872Z,101748.14
2018-03-20T18:53:46.398Z,101748.89
2018-03-20T18:56:14.002Z,101751.46
2018-03-20T18:58:41.598Z,101759.92
2018-03-20T19:01:09.185Z,101768.44
2018-03-20T19:03:36.808Z,101770.44
2018-03-20T19:06:04.370Z,101768.06
2018-03-20T19:08:31.896Z,101782.27
2018-03-20T19:10:59.720Z,101786.91
2018-03-20T19:13:27.262Z,101791.28
2018-03-20T19:15:54.860Z,101800.74
2018-03-20T19:18:23.261Z,101797.09
2018-03-20T19:20:50.798Z,101798.59
2018-03-20T19:23:18.640Z,101801.61
2018-03-20T19:25:46.634Z,101810.41
2018-03-20T19:28:14.492Z,101812.67
2018-03-20T19:30:42.216Z,101814.25
2018-03-20T19:33:11.400Z,101826.34
2018-03-20T19:35:40.364Z,101826.37
2018-03-20T19:38:08.705Z,101832.69
2018-03-20T19:40:37.085Z,101836.16
2018-03-20T19:43:04.677Z,101840.58
2018-03-20T19:45:32.195Z,101848.11
2018-03-20T19:47:59.698Z,101847.00
2018-03-20T19:50:27.231Z,101860.11
2018-03-20T19:52:54.726Z,101864.62
2018-03-20T19:55:22.679Z,101860.54
2018-03-20T19:57:50.258Z,101867.59
2018-03-20T20:00:18.109Z,101872.55
2018-03-20T20:02:46.074Z,101876.28
2018-03-20T20:05:13.644Z,101885.11
2018-03-20T20:07:41.201Z,101883.97
2018-03-20T20:10:08.793Z,101886.86
2018-03-20T20:12:37.346Z,101890.59
2018-03-20T20:15:08.941Z,101896.95
2018-03-20T20:17:40.741Z,101899.59
2018-03-20T20:20:17.496Z,101913.59
2018-03-20T20:22:45.265Z,101915.16
2018-03-20T20:25:17.901Z,101918.58
2018-03-20T20:27:45.886Z,101920.06
2018-03-20T20:30:13.818Z,101923.42
2018-03-20T20:32:41.546Z,101924.29
2018-03-20T20:35:09.632Z,101931.50
2018-03-20T20:37:37.247Z,101927.55
2018-03-20T20:40:09.058Z,101932.77
2018-03-20T20:42:37.544Z,101936.61
2018-03-20T20:45:07.082Z,101938.59
2018-03-20T20:47:34.919Z,101938.42
2018-03-20T20:50:02.480Z,101947.59
2018-03-20T20:52:30.263Z,101948.18
2018-03-20T20:54:57.804Z,101947.41
2018-03-20T20:57:25.401Z,101947.53
2018-03-20T20:59:52.925Z,101946.72
2018-03-20T21:02:20.475Z,101948.97
2018-03-20T21:04:48.140Z,101954.04
2018-03-20T21:07:15.736Z,101958.37
2018-03-20T21:09:43.519Z,101953.42
2018-03-20T21:12:11.060Z,101960.49
2018-03-20T21:14:38.585Z,101960.17
2018-03-20T21:17:06.598Z,101963.14
2018-03-20T21:19:34.132Z,101969.16
2018-03-20T21:22:01.654Z,101973.83
2018-03-20T21:24:29.170Z,101973.06
2018-03-20T21:26:56.695Z,101972.91
2018-03-20T21:29:24.691Z,101971.88
2018-03-20T21:31:52.213Z,101980.00
2018-03-20T21:34:19.838Z,101987.70
2018-03-20T21:36:47.384Z,101987.35
2018-03-20T21:39:14.925Z,101987.35
2018-03-20T21:41:42.533Z,101993.63
2018-03-20T21:44:10.206Z,101993.70
2018-03-20T21:46:37.750Z,101988.02
2018-03-20T21:49:05.528Z,101994.98
2018-03-20T21:51:34.113Z,101999.84
2018-03-20T21:54:01.657Z,102003.01
2018-03-20T21:56:29.377Z,102004.98
2018-03-20T21:58:57.851Z,102008.34
2018-03-20T22:01:25.378Z,102003.09
2018-03-20T22:03:53.035Z,102007.20
2018-03-20T22:06:20.604Z,102004.88
2018-03-20T22:08:48.116Z,102006.63
2018-03-20T22:11:16.007Z,102007.59
2018-03-20T22:13:43.570Z,102018.15
2018-03-20T22:16:11.078Z,102023.48
2018-03-20T22:18:38.666Z,102017.72
2018-03-20T22:21:06.274Z,102025.53
2018-03-20T22:23:34.632Z,102024.52
2018-03-20T22:26:02.170Z,102032.95
2018-03-20T22:28:30.063Z,102039.22
2018-03-20T22:30:57.565Z,102039.41
2018-03-20T22:33:25.104Z,102039.95
2018-03-20T22:35:53.041Z,102042.58
2018-03-20T22:38:20.712Z,102043.63
2018-03-20T22:40:48.285Z,102053.25
2018-03-20T22:43:15.826Z,102050.19
2018-03-20T22:45:43.335Z,102050.19
2018-03-20T22:48:10.876Z,102054.63
2018-03-20T22:50:38.440Z,102053.01
2018-03-20T22:53:06.035Z,102053.90
2018-03-20T22:55:33.829Z,102053.05
2018-03-20T22:58:01.403Z,102057.34
2018-03-20T23:00:29.465Z,102055.56
2018-03-20T23:02:57.038Z,102052.55
2018-03-20T23:05:24.580Z,102050.34
2018-03-20T23:07:52.097Z,102050.03
2018-03-20T23:10:19.700Z,102051.89
2018-03-20T23:12:47.274Z,102050.69
2018-03-20T23:15:16.780Z,102050.80
2018-03-20T23:17:44.342Z,102049.09
2018-03-20T23:20:12.008Z,102050.99
2018-03-20T23:22:39.557Z,102055.51
2018-03-20T23:25:07.111Z,102053.80
2018-03-20T23:27:34.631Z,102051.25
2018-03-20T23:30:02.147Z,102056.90
2018-03-20T23:32:29.774Z,102052.77
2018-03-20T23:34:57.309Z,102061.58
2018-03-20T23:37:24.825Z,102052.03
2018-03-20T23:39:52.410Z,102055.12
2018-03-20T23:42:20.058Z,102059.09
2018-03-20T23:44:47.761Z,102063.16
2018-03-20T23:47:15.326Z,102057.83
2018-03-20T23:49:42.877Z,102060.14
2018-03-20T23:52:10.477Z,102069.02
2018-03-20T23:54:38.062Z,102064.27
2018-03-20T23:57:05.562Z,102073.00
2018-03-20T23:59:33.391Z,102076.55
